Time;durP1;ratioP1;P1;durP2;ratioP2;P2;SDS_P1;SDS_P2;PMS_P1;PMS_P2;Temp;Humidity;BMP_temperature;BMP_pressure;BME280_temperature;BME280_humidity;BME280_pressure;Samples;Min_cycle;Max_cycle;Signal;HPM_P1;HPM_P2
2023/01/30 00:01:34;;;;;;;13.93;4.22;;;5.90;99.90;;;;;;5034729;28;20060;-73
2023/01/30 00:04:02;;;;;;;13.45;4.35;;;5.90;99.90;;;;;;5050906;28;20041;-73
2023/01/30 00:06:29;;;;;;;17.98;4.60;;;6.10;99.90;;;;;;5053556;28;20040;-73
2023/01/30 00:08:57;;;;;;;17.10;4.47;;;6.10;99.90;;;;;;5054802;28;20375;-73
2023/01/30 00:11:27;;;;;;;16.65;4.80;;;6.10;99.90;;;;;;5053568;28;20493;-73
2023/01/30 00:13:55;;;;;;;11.57;3.75;;;6.10;99.90;;;;;;5054543;28;20482;-73
2023/01/30 00:16:22;;;;;;;16.40;4.38;;;6.20;99.90;;;;;;5054676;28;20045;-72
2023/01/30 00:18:50;;;;;;;13.65;4.85;;;6.20;99.90;;;;;;5052961;28;20375;-73
2023/01/30 00:21:18;;;;;;;13.60;4.60;;;6.20;99.90;;;;;;5054792;28;20451;-73
2023/01/30 00:23:45;;;;;;;20.13;4.78;;;6.20;99.90;;;;;;5054369;28;20467;-73
2023/01/30 00:26:13;;;;;;;14.75;4.00;;;6.20;99.90;;;;;;5053303;28;20037;-73
2023/01/30 00:28:41;;;;;;;15.75;4.78;;;6.00;99.90;;;;;;5054902;28;20049;-73
2023/01/30 00:31:09;;;;;;;9.20;4.10;;;6.30;99.90;;;;;;5053278;28;20091;-73
2023/01/30 00:33:38;;;;;;;10.93;3.78;;;6.20;99.90;;;;;;5054105;28;20112;-73
2023/01/30 00:36:06;;;;;;;12.98;4.05;;;6.30;99.90;;;;;;5053664;28;20041;-73
2023/01/30 00:38:34;;;;;;;15.43;3.97;;;6.30;99.90;;;;;;5053256;28;20041;-73
2023/01/30 00:41:02;;;;;;;11.55;4.00;;;6.30;99.90;;;;;;5054468;28;20037;-73
2023/01/30 00:49:19;;;;;;;9.00;3.45;;;6.40;99.90;;;;;;5053325;28;20064;-72
2023/01/30 00:51:47;;;;;;;17.20;3.42;;;5.90;99.90;;;;;;5053141;28;20060;-73
2023/01/30 00:54:15;;;;;;;11.52;3.30;;;6.50;99.90;;;;;;5053471;28;20041;-73
2023/01/30 00:56:43;;;;;;;10.15;3.25;;;7.00;99.90;;;;;;5053449;28;20041;-73
2023/01/30 00:59:10;;;;;;;9.73;3.38;;;6.60;99.90;;;;;;5052955;28;20052;-73
2023/01/30 01:01:38;;;;;;;9.80;3.00;;;6.70;99.90;;;;;;5036635;28;20498;-73
2023/01/30 01:04:07;;;;;;;11.95;3.17;;;7.50;99.90;;;;;;5039137;28;20050;-73
2023/01/30 01:06:36;;;;;;;10.57;3.10;;;6.70;99.90;;;;;;5019259;28;20057;-73
2023/01/30 01:09:04;;;;;;;7.57;3.10;;;6.80;99.90;;;;;;5020741;28;20399;-73
2023/01/30 01:11:31;;;;;;;12.10;2.78;;;6.80;99.90;;;;;;5019492;28;20049;-73
2023/01/30 01:14:01;;;;;;;15.32;3.45;;;6.90;99.90;;;;;;5037994;28;20064;-73
2023/01/30 01:16:31;;;;;;;6.32;2.20;;;6.90;99.90;;;;;;5020468;28;20049;-73
2023/01/30 01:18:59;;;;;;;11.07;3.10;;;6.80;99.90;;;;;;5036825;28;20046;-73
2023/01/30 01:21:27;;;;;;;10.02;3.05;;;6.80;99.90;;;;;;5037750;28;20041;-73
2023/01/30 01:23:57;;;;;;;9.85;3.10;;;6.90;99.90;;;;;;5020269;28;20052;-73
2023/01/30 01:26:25;;;;;;;10.43;2.70;;;6.90;99.90;;;;;;5019122;28;20041;-73
2023/01/30 01:28:54;;;;;;;9.05;2.25;;;7.00;99.90;;;;;;5037757;28;20053;-73
2023/01/30 01:31:23;;;;;;;9.05;2.90;;;7.00;99.90;;;;;;5019522;28;20053;-73
2023/01/30 01:33:51;;;;;;;10.00;2.63;;;6.90;99.90;;;;;;5020302;28;20383;-73
2023/01/30 01:36:18;;;;;;;;;;;6.90;99.90;;;;;;5038186;28;20045;-73
2023/01/30 01:39:06;;;;;;;9.25;2.50;;;7.80;99.90;;;;;;5018964;28;20275;-73
2023/01/30 01:41:33;;;;;;;10.00;3.05;;;6.90;99.90;;;;;;5003783;28;20460;-73
2023/01/30 01:44:13;;;;;;;12.18;2.83;;;6.90;99.90;;;;;;5020156;28;20046;-73
2023/01/30 01:46:54;;;;;;;11.43;2.78;;;6.80;99.90;;;;;;5036314;28;20456;-73
2023/01/30 01:49:27;;;;;;;12.45;2.90;;;6.90;99.90;;;;;;5037283;28;20052;-72
2023/01/30 01:52:02;;;;;;;12.73;2.80;;;6.90;99.90;;;;;;5036435;28;20061;-73
2023/01/30 01:54:42;;;;;;;10.70;3.03;;;7.00;99.90;;;;;;5037049;28;20046;-73
2023/01/30 01:57:23;;;;;;;13.73;2.92;;;7.00;99.90;;;;;;5020137;28;20041;-73
2023/01/30 02:00:15;;;;;;;10.57;2.88;;;7.30;99.90;;;;;;5018376;28;20380;-73
2023/01/30 02:02:52;;;;;;;13.98;2.92;;;7.00;99.90;;;;;;5031395;28;20052;-73
2023/01/30 02:05:20;;;;;;;10.15;2.40;;;7.00;99.90;;;;;;5038724;28;20376;-72
2023/01/30 02:07:59;;;;;;;11.10;2.60;;;7.00;99.90;;;;;;5056775;28;20052;-72
2023/01/30 02:10:45;;;;;;;13.20;2.67;;;7.00;99.90;;;;;;5056931;28;20486;-73
2023/01/30 02:13:15;;;;;;;15.77;3.20;;;7.00;99.90;;;;;;5054353;28;20044;-73
2023/01/30 02:15:44;;;;;;;11.68;3.13;;;7.00;99.90;;;;;;5056988;28;20056;-73
2023/01/30 02:18:13;;;;;;;13.93;2.92;;;7.00;99.90;;;;;;5055331;28;20108;-73
2023/01/30 02:21:07;;;;;;;13.35;2.80;;;7.00;99.90;;;;;;5056379;28;20100;-73
2023/01/30 02:23:36;;;;;;;11.38;2.45;;;7.00;99.90;;;;;;5012428;28;20040;-73
2023/01/30 02:26:22;;;;;;;12.10;2.83;;;6.90;99.90;;;;;;5055688;28;20049;-73
2023/01/30 02:29:25;;;;;;;13.32;3.13;;;7.00;99.90;;;;;;5039172;28;20048;-73
2023/01/30 02:32:07;;;;;;;16.58;2.92;;;6.90;99.90;;;;;;5055627;28;20379;-72
2023/01/30 02:34:55;;;;;;;16.73;3.30;;;6.90;99.90;;;;;;5055658;28;20064;-73
2023/01/30 02:37:44;;;;;;;13.00;2.42;;;6.90;99.90;;;;;;5055317;28;20468;-73
2023/01/30 02:40:20;;;;;;;14.63;2.78;;;6.90;99.90;;;;;;5055272;28;20052;-73
2023/01/30 02:43:00;;;;;;;12.15;2.53;;;7.00;99.90;;;;;;5055753;28;20041;-73
2023/01/30 02:45:36;;;;;;;15.80;2.92;;;7.00;99.90;;;;;;5054125;28;20045;-73
2023/01/30 02:48:12;;;;;;;12.63;2.78;;;6.90;99.90;;;;;;5039119;28;20060;-73
2023/01/30 02:50:52;;;;;;;7.05;2.47;;;7.10;99.90;;;;;;5056246;28;20055;-73
2023/01/30 02:53:20;;;;;;;16.63;2.40;;;7.00;99.90;;;;;;5054102;28;20045;-73
2023/01/30 02:55:48;;;;;;;15.10;2.80;;;7.10;99.90;;;;;;5056002;28;20052;-73
2023/01/30 02:58:20;;;;;;;14.57;3.08;;;7.00;99.90;;;;;;5054544;28;20147;-73
2023/01/30 03:01:08;;;;;;;18.70;2.80;;;7.10;99.90;;;;;;5054949;28;20048;-73
2023/01/30 03:03:56;;;;;;;11.85;2.22;;;7.20;99.90;;;;;;5040442;28;20380;-73
2023/01/30 03:06:37;;;;;;;10.35;2.63;;;7.30;99.90;;;;;;5034611;28;20379;-72
2023/01/30 03:09:28;;;;;;;12.48;2.50;;;7.40;99.90;;;;;;5018778;28;20064;-73
2023/01/30 03:12:08;;;;;;;11.20;2.75;;;7.40;99.90;;;;;;5017352;28;20056;-73
2023/01/30 03:14:57;;;;;;;11.50;2.35;;;7.50;99.90;;;;;;5018502;28;20041;-73
2023/01/30 03:17:26;;;;;;;13.68;2.70;;;7.50;99.90;;;;;;5035521;28;20464;-73
2023/01/30 03:19:55;;;;;;;15.48;2.85;;;7.10;99.90;;;;;;5017027;28;20049;-73
2023/01/30 03:22:22;;;;;;;6.10;2.17;;;7.50;99.90;;;;;;5018116;28;20060;-73
2023/01/30 03:24:53;;;;;;;10.40;2.42;;;7.50;99.90;;;;;;5000091;28;20045;-73
2023/01/30 03:27:21;;;;;;;16.17;2.70;;;7.50;99.90;;;;;;5018063;28;20384;-73
2023/01/30 03:29:49;;;;;;;20.30;2.58;;;7.20;99.90;;;;;;5017980;28;20052;-73
2023/01/30 03:32:17;;;;;;;12.27;2.95;;;7.30;99.90;;;;;;5016897;28;20057;-73
2023/01/30 03:34:44;;;;;;;12.20;2.70;;;7.30;99.90;;;;;;5001809;28;20041;-73
2023/01/30 03:37:12;;;;;;;21.20;3.60;;;7.30;99.90;;;;;;5017938;28;20132;-73
2023/01/30 03:39:40;;;;;;;13.75;3.03;;;7.20;99.90;;;;;;5000387;28;20046;-72
2023/01/30 03:42:08;;;;;;;16.83;3.17;;;7.20;99.90;;;;;;5018330;28;20052;-73
2023/01/30 03:44:36;;;;;;;15.60;2.97;;;7.20;99.90;;;;;;5016693;28;20045;-73
2023/01/30 03:47:04;;;;;;;16.10;2.75;;;7.70;99.90;;;;;;5017775;28;20352;-74
2023/01/30 03:49:31;;;;;;;10.63;2.83;;;7.20;99.90;;;;;;5017768;28;20056;-73
2023/01/30 03:51:59;;;;;;;17.52;3.40;;;7.20;99.90;;;;;;5016793;28;20057;-73
2023/01/30 03:54:26;;;;;;;12.15;2.78;;;7.20;99.90;;;;;;5017963;28;20049;-73
2023/01/30 03:56:54;;;;;;;20.05;3.40;;;7.10;99.90;;;;;;5017879;28;20482;-73
2023/01/30 03:59:22;;;;;;;12.48;3.15;;;7.20;99.90;;;;;;5016467;28;20045;-72
2023/01/30 04:01:58;;;;;;;22.45;3.53;;;7.10;99.90;;;;;;5017489;28;20038;-73
2023/01/30 04:04:25;;;;;;;16.10;3.35;;;7.00;99.90;;;;;;5033652;28;20045;-73
2023/01/30 04:06:54;;;;;;;15.45;3.75;;;7.00;99.90;;;;;;5017438;28;20373;-73
2023/01/30 04:09:23;;;;;;;16.70;3.05;;;7.00;99.90;;;;;;5018123;28;20045;-72
2023/01/30 04:11:52;;;;;;;13.27;3.30;;;7.00;99.90;;;;;;4999931;28;20045;-73
2023/01/30 04:14:19;;;;;;;17.98;3.63;;;7.00;99.90;;;;;;5017478;28;20057;-73
2023/01/30 04:17:07;;;;;;;18.85;3.42;;;7.00;99.90;;;;;;5034943;28;20471;-73
2023/01/30 04:19:57;;;;;;;17.67;3.60;;;6.90;99.90;;;;;;4987943;28;20049;-73
2023/01/30 04:22:25;;;;;;;;;;;6.90;99.90;;;;;;5018042;28;20049;-73
2023/01/30 04:24:53;;;;;;;20.15;3.53;;;6.90;99.90;;;;;;5016592;28;19921;-73
2023/01/30 04:27:20;;;;;;;14.73;3.90;;;7.00;99.90;;;;;;5001234;28;20037;-73
2023/01/30 04:30:08;;;;;;;20.85;4.10;;;7.00;99.90;;;;;;5016727;28;20065;-73
2023/01/30 04:32:35;;;;;;;16.83;4.15;;;7.00;99.90;;;;;;5016439;28;20054;-73
2023/01/30 04:35:03;;;;;;;21.42;4.20;;;7.20;99.90;;;;;;5017454;28;20045;-73
2023/01/30 04:37:31;;;;;;;;;;;7.10;99.90;;;;;;5021115;28;20049;-73
2023/01/30 04:39:58;;;;;;;18.42;3.72;;;7.10;99.90;;;;;;5020253;28;20248;-73
2023/01/30 04:42:27;;;;;;;16.58;4.05;;;7.20;99.90;;;;;;5021058;28;20041;-74
2023/01/30 04:45:32;;;;;;;16.05;4.20;;;7.20;99.90;;;;;;5037213;28;20041;-73
2023/01/30 04:48:00;;;;;;;18.15;4.18;;;7.20;99.90;;;;;;5021002;28;20048;-74
2023/01/30 04:50:29;;;;;;;23.67;4.90;;;7.20;99.90;;;;;;5021148;28;20068;-73
2023/01/30 04:52:56;;;;;;;18.08;4.63;;;7.20;99.90;;;;;;5003715;28;20049;-73
2023/01/30 04:55:24;;;;;;;14.05;3.60;;;7.40;99.90;;;;;;5020869;28;20060;-73
2023/01/30 04:57:52;;;;;;;24.60;4.65;;;7.90;99.90;;;;;;5019860;28;20487;-73
2023/01/30 05:00:20;;;;;;;20.27;4.75;;;7.30;99.90;;;;;;5020638;28;20037;-73
2023/01/30 05:02:54;;;;;;;21.48;4.72;;;8.60;99.90;;;;;;5035132;28;20044;-74
2023/01/30 05:05:23;;;;;;;19.10;5.00;;;7.30;99.90;;;;;;5056826;28;20045;-73
2023/01/30 05:07:51;;;;;;;26.35;4.97;;;7.30;99.90;;;;;;5057248;28;20468;-74
2023/01/30 05:10:19;;;;;;;19.60;5.35;;;7.10;99.90;;;;;;5058043;28;20053;-74
2023/01/30 05:12:46;;;;;;;24.48;5.15;;;7.30;99.90;;;;;;5056864;28;20053;-72
2023/01/30 05:15:14;;;;;;;18.52;4.75;;;7.20;99.90;;;;;;5057966;28;20061;-73
2023/01/30 05:17:41;;;;;;;17.15;4.55;;;7.10;99.90;;;;;;5056863;28;20049;-73
2023/01/30 05:20:12;;;;;;;15.05;4.82;;;7.60;99.90;;;;;;5057635;28;20049;-73
2023/01/30 05:22:40;;;;;;;20.40;5.32;;;7.10;99.90;;;;;;5056781;28;20060;-73
2023/01/30 05:25:08;;;;;;;22.08;4.95;;;7.10;99.90;;;;;;5056099;28;20053;-74
2023/01/30 05:27:35;;;;;;;15.52;4.35;;;7.00;99.90;;;;;;5057592;28;20052;-72
2023/01/30 05:30:04;;;;;;;24.48;5.45;;;7.00;99.90;;;;;;5057420;28;20041;-74
2023/01/30 05:32:31;;;;;;;15.20;3.95;;;7.00;99.90;;;;;;5039007;28;20067;-74
2023/01/30 05:34:59;;;;;;;18.25;4.60;;;7.00;99.90;;;;;;5057373;28;20044;-73
2023/01/30 05:37:26;;;;;;;18.92;5.00;;;7.00;99.90;;;;;;5054395;28;20049;-74
2023/01/30 05:39:54;;;;;;;18.08;4.85;;;7.00;99.90;;;;;;5050489;28;20045;-74
2023/01/30 05:42:21;;;;;;;19.02;5.10;;;6.90;99.90;;;;;;5057441;28;20368;-73
2023/01/30 05:44:48;;;;;;;29.80;4.93;;;7.00;99.90;;;;;;5055371;28;20048;-73
2023/01/30 05:47:16;;;;;;;20.77;4.85;;;6.90;99.90;;;;;;5057066;28;20526;-73
2023/01/30 05:49:44;;;;;;;15.05;4.63;;;7.00;99.90;;;;;;5056626;28;20053;-73
2023/01/30 05:52:11;;;;;;;27.52;5.93;;;6.80;99.90;;;;;;5056381;28;20041;-73
2023/01/30 05:54:39;;;;;;;18.60;5.20;;;7.40;99.90;;;;;;5057208;28;20353;-73
2023/01/30 05:57:06;;;;;;;24.48;6.10;;;6.70;99.90;;;;;;5056088;28;20052;-75
2023/01/30 05:59:34;;;;;;;26.05;5.75;;;6.30;99.90;;;;;;5036539;28;20057;-73
2023/01/30 06:02:01;;;;;;;22.67;6.63;;;6.60;99.90;;;;;;5034426;28;20049;-72
2023/01/30 06:04:29;;;;;;;20.90;5.65;;;6.80;99.90;;;;;;5016130;28;20377;-73
2023/01/30 06:06:56;;;;;;;25.63;6.60;;;6.60;99.90;;;;;;5017301;28;20052;-74
2023/01/30 06:09:24;;;;;;;20.63;6.18;;;6.60;99.90;;;;;;5000022;28;20042;-74
2023/01/30 06:11:51;;;;;;;26.05;6.28;;;6.60;99.90;;;;;;4998547;28;20056;-74
2023/01/30 06:14:19;;;;;;;;;;;6.70;99.90;;;;;;5000617;28;20049;-73
2023/01/30 06:16:47;;;;;;;20.95;6.68;;;6.70;99.90;;;;;;5017473;28;19925;-73
2023/01/30 06:19:14;;;;;;;17.60;6.22;;;6.90;99.90;;;;;;5015937;28;20050;-74
2023/01/30 06:21:44;;;;;;;23.92;8.00;;;6.80;99.90;;;;;;5017144;28;20053;-74
2023/01/30 06:24:12;;;;;;;16.95;6.80;;;6.90;99.90;;;;;;5016605;28;20045;-74
2023/01/30 06:26:39;;;;;;;28.63;6.15;;;7.00;99.90;;;;;;5015584;28;20046;-74
2023/01/30 06:29:07;;;;;;;24.23;8.10;;;7.00;99.90;;;;;;5017064;28;20050;-74
2023/01/30 06:31:34;;;;;;;23.98;7.90;;;7.00;99.90;;;;;;4998514;28;20046;-72
2023/01/30 06:34:02;;;;;;;20.30;7.15;;;7.10;99.90;;;;;;5016794;28;20038;-73
2023/01/30 06:36:29;;;;;;;18.88;5.45;;;7.10;99.90;;;;;;4999284;28;20061;-73
2023/01/30 06:38:57;;;;;;;17.00;6.88;;;7.20;99.90;;;;;;4998373;28;20054;-73
2023/01/30 06:41:24;;;;;;;20.25;4.97;;;7.20;99.90;;;;;;5016270;28;20053;-75
2023/01/30 06:43:52;;;;;;;18.60;5.60;;;9.10;99.90;;;;;;5016344;28;20053;-75
2023/01/30 06:46:20;;;;;;;13.30;4.40;;;9.40;99.90;;;;;;4997442;28;20056;-73
2023/01/30 06:48:47;;;;;;;17.98;4.97;;;9.00;99.90;;;;;;4999090;28;20049;-74
2023/01/30 06:51:15;;;;;;;18.73;4.75;;;7.50;99.90;;;;;;5014889;28;20042;-72
2023/01/30 06:53:43;;;;;;;21.17;4.03;;;7.40;99.90;;;;;;4998699;28;20061;-74
2023/01/30 06:56:10;;;;;;;21.00;4.47;;;7.50;99.90;;;;;;4998922;28;20373;-75
2023/01/30 06:58:38;;;;;;;23.02;4.00;;;7.60;99.90;;;;;;5014811;28;20131;-74
2023/01/30 07:01:05;;;;;;;21.90;4.55;;;8.10;99.90;;;;;;5015473;28;20046;-74
2023/01/30 07:03:33;;;;;;;18.38;3.80;;;7.40;99.90;;;;;;5015618;28;20046;-75
2023/01/30 07:06:00;;;;;;;20.67;4.47;;;7.30;99.90;;;;;;5014617;28;20053;-74
2023/01/30 07:08:28;;;;;;;20.08;4.10;;;7.20;99.90;;;;;;5015746;28;20046;-73
2023/01/30 07:10:55;;;;;;;20.10;4.20;;;6.90;99.90;;;;;;4998511;28;20053;-73
2023/01/30 07:13:23;;;;;;;21.33;4.35;;;6.90;99.90;;;;;;5014485;28;20053;-72
2023/01/30 07:15:50;;;;;;;22.95;4.50;;;7.10;99.90;;;;;;5015536;28;20052;-75
2023/01/30 07:18:18;;;;;;;17.42;4.13;;;6.80;99.90;;;;;;5014516;28;20373;-74
2023/01/30 07:20:46;;;;;;;19.80;5.18;;;6.70;99.90;;;;;;5015331;28;20046;-72
2023/01/30 07:23:14;;;;;;;16.90;4.18;;;6.40;99.90;;;;;;4998099;28;20465;-73
2023/01/30 07:25:42;;;;;;;22.23;4.63;;;6.80;99.90;;;;;;5014457;28;20042;-73
2023/01/30 07:28:10;;;;;;;19.73;4.30;;;6.80;99.90;;;;;;5021036;28;20041;-72
2023/01/30 07:30:37;;;;;;;19.00;4.03;;;6.70;99.90;;;;;;5035271;28;20052;-72
2023/01/30 07:33:05;;;;;;;22.70;4.35;;;6.70;99.90;;;;;;5034061;28;20045;-73
2023/01/30 07:35:35;;;;;;;16.45;4.53;;;6.70;99.90;;;;;;5017871;28;20449;-73
2023/01/30 07:38:04;;;;;;;19.55;5.03;;;6.80;99.90;;;;;;5034225;28;20484;-73
2023/01/30 07:40:32;;;;;;;18.55;5.10;;;8.60;99.90;;;;;;5035104;28;20046;-72
2023/01/30 07:43:02;;;;;;;20.30;4.95;;;7.60;99.90;;;;;;5034617;28;20068;-72
2023/01/30 07:45:43;;;;;;;19.85;5.03;;;6.60;99.90;;;;;;5033929;28;20048;-72
2023/01/30 07:48:16;;;;;;;19.70;5.40;;;6.60;99.90;;;;;;5035069;28;20057;-73
2023/01/30 07:50:44;;;;;;;17.73;4.28;;;6.50;99.90;;;;;;5035013;28;20046;-72
2023/01/30 07:53:14;;;;;;;20.55;4.10;;;6.80;99.90;;;;;;5033714;28;20064;-73
2023/01/30 07:55:42;;;;;;;20.20;3.38;;;6.40;99.90;;;;;;5034745;28;20052;-72
2023/01/30 07:58:13;;;;;;;14.70;3.55;;;5.60;99.90;;;;;;5033300;28;20376;-73
2023/01/30 08:00:41;;;;;;;12.27;3.30;;;6.40;99.90;;;;;;5017774;28;20046;-73
2023/01/30 08:03:13;;;;;;;20.35;3.95;;;6.30;99.90;;;;;;5036207;28;20057;-72
2023/01/30 08:05:41;;;;;;;16.80;2.90;;;6.30;99.90;;;;;;5053730;28;20052;-72
2023/01/30 08:08:09;;;;;;;19.25;2.90;;;6.30;99.90;;;;;;5053858;28;20041;-72
2023/01/30 08:10:36;;;;;;;21.10;2.72;;;6.40;99.90;;;;;;5054091;28;20048;-72
2023/01/30 08:13:04;;;;;;;18.17;2.75;;;6.50;99.90;;;;;;5053006;28;20395;-72
2023/01/30 08:15:32;;;;;;;16.75;2.33;;;6.50;99.90;;;;;;5054886;28;20081;-72
2023/01/30 08:17:59;;;;;;;;;;;7.60;99.90;;;;;;5053077;28;20311;-73
2023/01/30 08:20:27;;;;;;;17.75;2.65;;;6.60;99.90;;;;;;5053565;28;19920;-73
2023/01/30 08:22:55;;;;;;;15.07;2.33;;;6.40;99.90;;;;;;5054332;28;20053;-73
2023/01/30 08:25:23;;;;;;;13.52;2.13;;;6.70;99.90;;;;;;5053348;28;20132;-73
2023/01/30 08:27:51;;;;;;;15.95;2.45;;;7.20;99.90;;;;;;5053190;28;20052;-73
2023/01/30 08:30:20;;;;;;;16.65;2.35;;;6.70;99.90;;;;;;5054367;28;20063;-74
2023/01/30 08:32:48;;;;;;;13.38;2.10;;;6.70;99.90;;;;;;5053369;28;20491;-73
2023/01/30 08:35:16;;;;;;;15.80;2.33;;;6.60;99.90;;;;;;5054321;28;20376;-73
2023/01/30 08:37:44;;;;;;;15.40;2.25;;;6.60;99.90;;;;;;5053088;28;20041;-74
2023/01/30 08:40:12;;;;;;;13.77;2.13;;;6.70;99.90;;;;;;5053872;28;20056;-74
2023/01/30 08:42:42;;;;;;;15.77;2.40;;;6.60;99.90;;;;;;5053930;28;20052;-73
2023/01/30 08:45:10;;;;;;;18.45;2.60;;;6.60;99.90;;;;;;5053218;28;20045;-73
2023/01/30 08:47:37;;;;;;;16.42;2.25;;;6.50;99.90;;;;;;5054334;28;20073;-73
2023/01/30 08:50:05;;;;;;;18.95;2.45;;;6.50;99.90;;;;;;5054918;28;20049;-73
2023/01/30 08:52:33;;;;;;;15.52;2.10;;;6.50;99.90;;;;;;5053126;28;20494;-73
2023/01/30 08:55:00;;;;;;;18.48;2.42;;;6.60;99.90;;;;;;5053702;28;20056;-73
2023/01/30 08:57:28;;;;;;;10.75;1.80;;;6.60;99.90;;;;;;5054315;28;20048;-73
2023/01/30 08:59:55;;;;;;;19.73;2.42;;;6.50;99.90;;;;;;5053058;28;20049;-73
2023/01/30 09:02:23;;;;;;;18.13;2.75;;;6.80;99.90;;;;;;5049071;28;20365;-74
2023/01/30 09:04:50;;;;;;;11.88;1.75;;;6.30;99.90;;;;;;5015888;28;20465;-73
2023/01/30 09:07:18;;;;;;;16.17;2.78;;;6.50;99.90;;;;;;5034906;28;20053;-73
2023/01/30 09:09:47;;;;;;;15.68;2.30;;;6.50;99.90;;;;;;5033671;28;20053;-72
2023/01/30 09:12:14;;;;;;;19.85;2.50;;;6.50;99.90;;;;;;5033010;28;20050;-75
2023/01/30 09:14:42;;;;;;;16.35;2.25;;;6.70;99.90;;;;;;5034244;28;20465;-73
2023/01/30 09:17:09;;;;;;;22.70;2.20;;;6.60;99.90;;;;;;5034405;28;20053;-74
2023/01/30 09:19:37;;;;;;;14.60;2.63;;;6.60;99.90;;;;;;5033117;28;20495;-74
2023/01/30 09:22:06;;;;;;;12.75;1.77;;;6.60;99.90;;;;;;5033907;28;20095;-72
2023/01/30 09:24:34;;;;;;;18.00;2.60;;;6.60;99.90;;;;;;5035609;28;20045;-72
2023/01/30 09:27:01;;;;;;;20.45;2.72;;;6.60;99.90;;;;;;5037727;28;20052;-72
2023/01/30 09:29:32;;;;;;;16.40;2.45;;;6.80;99.90;;;;;;5037798;28;20045;-72
2023/01/30 09:32:00;;;;;;;13.85;2.50;;;6.60;99.90;;;;;;5036568;28;20053;-72
2023/01/30 09:34:27;;;;;;;22.98;2.92;;;6.80;99.90;;;;;;5019877;28;20373;-72
2023/01/30 09:36:59;;;;;;;17.05;2.65;;;6.70;99.90;;;;;;5037132;28;20380;-72
2023/01/30 09:39:27;;;;;;;14.48;2.42;;;6.40;99.90;;;;;;5002934;28;20060;-72
2023/01/30 09:42:03;;;;;;;18.60;2.92;;;7.00;99.90;;;;;;5037355;28;20041;-72
2023/01/30 09:44:57;;;;;;;20.38;2.63;;;6.70;99.90;;;;;;5036395;28;20045;-71
2023/01/30 09:47:51;;;;;;;17.48;2.83;;;6.70;99.90;;;;;;5014639;28;20072;-71
2023/01/30 09:50:46;;;;;;;20.55;2.72;;;6.60;99.90;;;;;;5033556;28;20057;-74
2023/01/30 09:53:38;;;;;;;21.27;2.30;;;6.60;99.90;;;;;;5036115;28;20068;-74
2023/01/30 09:56:05;;;;;;;15.70;2.75;;;6.60;99.90;;;;;;5037605;28;20053;-73
2023/01/30 09:58:53;;;;;;;14.30;2.65;;;6.60;99.90;;;;;;5018949;28;20042;-73
2023/01/30 10:01:39;;;;;;;18.92;3.05;;;6.60;99.90;;;;;;5037681;28;20045;-74
2023/01/30 10:04:22;;;;;;;20.92;2.70;;;6.60;99.90;;;;;;5054436;28;20401;-73
2023/01/30 10:07:21;;;;;;;15.93;2.78;;;6.60;99.90;;;;;;5056972;28;20371;-74
2023/01/30 10:10:16;;;;;;;27.20;2.88;;;6.60;99.90;;;;;;5057162;28;20333;-73
2023/01/30 10:13:09;;;;;;;19.75;2.78;;;6.60;99.90;;;;;;5054847;28;20048;-73
2023/01/30 10:15:42;;;;;;;19.05;2.47;;;6.60;99.90;;;;;;5056798;28;20053;-73
2023/01/30 10:18:30;;;;;;;18.70;2.60;;;6.80;99.90;;;;;;5055498;28;20060;-73
2023/01/30 10:21:09;;;;;;;15.90;2.83;;;6.70;99.90;;;;;;5056079;28;20049;-72
2023/01/30 10:23:46;;;;;;;17.17;2.42;;;6.70;99.90;;;;;;5056459;28;20045;-73
2023/01/30 10:26:18;;;;;;;20.70;3.17;;;6.70;99.90;;;;;;5038229;28;20040;-73
2023/01/30 10:28:55;;;;;;;21.05;2.75;;;6.80;99.90;;;;;;5056412;28;20037;-74
2023/01/30 10:31:40;;;;;;;17.27;3.00;;;6.80;99.90;;;;;;5055670;28;20041;-74
2023/01/30 10:34:37;;;;;;;18.40;2.90;;;6.90;99.90;;;;;;5055962;28;20044;-73
2023/01/30 10:37:09;;;;;;;20.88;2.83;;;6.90;99.90;;;;;;5056224;28;20048;-72
2023/01/30 10:40:00;;;;;;;22.92;3.05;;;6.90;99.90;;;;;;5054374;28;20464;-74
2023/01/30 10:42:57;;;;;;;12.02;2.20;;;6.90;99.90;;;;;;5055649;28;20044;-73
2023/01/30 10:45:40;;;;;;;23.42;2.50;;;6.80;99.90;;;;;;5054947;28;20124;-73
2023/01/30 10:48:18;;;;;;;19.50;2.85;;;6.90;99.90;;;;;;5056139;28;20048;-74
2023/01/30 10:50:53;;;;;;;30.73;3.45;;;6.90;99.90;;;;;;5056037;28;20479;-74
2023/01/30 10:53:24;;;;;;;20.35;2.28;;;6.70;99.90;;;;;;5054779;28;20479;-73
2023/01/30 10:56:02;;;;;;;24.83;3.65;;;7.00;99.90;;;;;;5055473;28;20391;-73
2023/01/30 10:58:38;;;;;;;23.08;3.22;;;7.00;99.90;;;;;;5055032;28;20053;-73
2023/01/30 11:01:16;;;;;;;19.05;3.40;;;7.00;99.90;;;;;;5055861;28;20051;-74
2023/01/30 11:03:54;;;;;;;25.70;3.03;;;8.00;99.90;;;;;;5039656;28;20052;-73
2023/01/30 11:06:24;;;;;;;21.60;3.03;;;7.20;99.90;;;;;;5034725;28;20380;-73
2023/01/30 11:08:53;;;;;;;17.52;2.70;;;8.00;99.90;;;;;;5035897;28;20038;-73
2023/01/30 11:11:48;;;;;;;18.88;3.30;;;7.20;99.90;;;;;;5034585;28;20309;-73
2023/01/30 11:14:16;;;;;;;19.75;2.92;;;7.20;99.90;;;;;;5035551;28;20049;-73
2023/01/30 11:16:46;;;;;;;22.67;3.30;;;7.20;99.90;;;;;;5035448;28;20486;-74
2023/01/30 11:19:16;;;;;;;18.42;2.53;;;7.20;99.90;;;;;;5034747;28;20053;-74
2023/01/30 11:21:54;;;;;;;15.32;2.95;;;7.50;99.90;;;;;;5035693;28;20049;-73
2023/01/30 11:24:22;;;;;;;19.92;3.00;;;7.30;99.90;;;;;;5034206;28;20346;-73
2023/01/30 11:26:51;;;;;;;16.65;2.67;;;7.40;99.90;;;;;;5035376;28;20349;-72
2023/01/30 11:29:31;;;;;;;16.42;2.25;;;8.80;99.90;;;;;;5035583;28;20041;-73
2023/01/30 11:32:11;;;;;;;19.00;3.08;;;7.50;99.90;;;;;;5017050;28;20046;-73
2023/01/30 11:34:42;;;;;;;23.73;2.75;;;7.50;99.90;;;;;;5035277;28;20045;-73
2023/01/30 11:37:30;;;;;;;24.77;3.10;;;7.50;99.90;;;;;;5035336;28;20380;-73
2023/01/30 11:39:57;;;;;;;18.92;3.13;;;7.30;99.90;;;;;;5034196;28;20054;-73
2023/01/30 11:42:30;;;;;;;22.83;2.85;;;9.30;99.90;;;;;;5035021;28;20041;-73
2023/01/30 11:44:59;;;;;;;24.45;3.13;;;7.30;99.90;;;;;;5034148;28;20041;-73
2023/01/30 11:47:53;;;;;;;19.52;2.60;;;7.30;99.90;;;;;;5035128;28;20056;-74
2023/01/30 11:50:38;;;;;;;18.75;2.63;;;7.30;99.90;;;;;;5035060;28;20038;-74
2023/01/30 11:53:34;;;;;;;19.15;3.00;;;7.80;99.90;;;;;;5033940;28;20061;-72
2023/01/30 11:56:21;;;;;;;23.80;3.10;;;7.50;99.90;;;;;;5034849;28;20048;-74
2023/01/30 11:58:58;;;;;;;19.53;2.93;;;7.60;99.90;;;;;;5016975;28;20060;-72
2023/01/30 12:01:32;;;;;;;19.35;2.78;;;7.50;99.90;;;;;;5017538;28;20609;-73
2023/01/30 12:04:03;;;;;;;17.33;2.60;;;7.60;99.90;;;;;;5034536;28;20053;-73
2023/01/30 12:06:33;;;;;;;17.33;3.00;;;7.60;99.90;;;;;;5033807;28;20057;-73
2023/01/30 12:09:03;;;;;;;19.02;3.00;;;8.00;99.90;;;;;;5034930;28;20073;-72
2023/01/30 12:11:46;;;;;;;20.85;3.00;;;7.70;99.90;;;;;;5033645;28;20497;-73
2023/01/30 12:14:34;;;;;;;23.40;3.50;;;7.60;99.90;;;;;;5017429;28;20045;-71
2023/01/30 12:17:04;;;;;;;;;;;7.60;99.90;;;;;;5035622;28;20064;-74
2023/01/30 12:19:41;;;;;;;16.48;3.05;;;7.60;99.90;;;;;;5033584;28;19925;-74
2023/01/30 12:22:14;;;;;;;19.88;2.92;;;7.60;99.90;;;;;;5034754;28;20049;-73
2023/01/30 12:24:58;;;;;;;16.05;3.15;;;8.20;99.90;;;;;;5016160;28;20041;-73
2023/01/30 12:27:34;;;;;;;24.08;3.28;;;7.70;99.90;;;;;;5034590;28;20056;-74
2023/01/30 12:30:28;;;;;;;23.33;2.92;;;7.60;99.90;;;;;;5034906;28;20052;-73
2023/01/30 12:33:02;;;;;;;18.25;2.80;;;7.60;99.90;;;;;;5018054;28;20053;-73
2023/01/30 12:35:50;;;;;;;23.35;3.30;;;7.50;99.90;;;;;;5035108;28;20049;-73
2023/01/30 12:38:30;;;;;;;17.80;2.60;;;7.50;99.90;;;;;;5033660;28;20053;-73
2023/01/30 12:41:39;;;;;;;26.95;3.40;;;9.00;99.90;;;;;;5034610;28;20392;-72
2023/01/30 12:44:19;;;;;;;20.27;2.88;;;7.50;99.90;;;;;;5034384;28;20037;-72
2023/01/30 12:47:15;;;;;;;20.15;3.33;;;7.50;99.90;;;;;;5034705;28;20045;-73
2023/01/30 12:50:05;;;;;;;14.50;2.83;;;7.50;99.90;;;;;;5034260;28;20052;-74
2023/01/30 12:52:42;;;;;;;16.88;2.85;;;6.80;99.90;;;;;;5033581;28;20042;-72
2023/01/30 12:55:32;;;;;;;19.35;2.55;;;7.50;99.90;;;;;;5034495;28;20050;-73
2023/01/30 12:58:21;;;;;;;21.08;3.70;;;7.50;99.90;;;;;;5017918;28;20033;-72
2023/01/30 13:01:05;;;;;;;18.00;2.72;;;7.50;99.90;;;;;;5037772;28;20045;-73
2023/01/30 13:03:36;;;;;;;19.73;2.70;;;7.50;99.90;;;;;;5037990;28;20042;-73
2023/01/30 13:06:29;;;;;;;17.70;3.38;;;8.10;99.90;;;;;;5037160;28;20049;-73
2023/01/30 13:09:38;;;;;;;20.10;3.17;;;7.60;99.90;;;;;;5037797;28;20049;-74
2023/01/30 13:12:16;;;;;;;20.15;3.65;;;7.80;99.90;;;;;;4995534;28;20054;-74
2023/01/30 13:14:56;;;;;;;19.38;3.00;;;9.60;99.90;;;;;;4996591;28;20054;-73
2023/01/30 13:17:52;;;;;;;21.80;3.40;;;8.00;99.90;;;;;;5013693;28;20049;-73
2023/01/30 13:20:38;;;;;;;17.38;2.67;;;8.10;99.90;;;;;;5037618;28;20053;-72
2023/01/30 13:23:48;;;;;;;25.02;2.78;;;8.20;99.90;;;;;;5011393;28;20064;-73
2023/01/30 13:26:37;;;;;;;18.55;2.63;;;8.30;99.90;;;;;;5021529;28;20049;-72